sensor_id;sensor_type;location;lat;lon;timestamp;pressure;altitude;pressure_sealevel;temperature;humidity
39739;BME280;25422;48.286;8.484;2024-01-30T00:01:00;95327.09;;;-0.76;100.00
39739;BME280;25422;48.286;8.484;2024-01-30T00:03:25;95320.34;;;-0.78;100.00
39739;BME280;25422;48.286;8.484;2024-01-30T00:05:50;95322.06;;;-0.79;100.00
39739;BME280;25422;48.286;8.484;2024-01-30T00:08:16;95322.84;;;-0.77;100.00
39739;BME280;25422;48.286;8.484;2024-01-30T00:10:41;95317.47;;;-0.72;100.00
39739;BME280;25422;48.286;8.484;2024-01-30T00:13:07;95321.78;;;-0.73;100.00
39739;BME280;25422;48.286;8.484;2024-01-30T00:15:32;95325.88;;;-0.69;100.00
39739;BME280;25422;48.286;8.484;2024-01-30T00:17:58;95320.75;;;-0.69;100.00
39739;BME280;25422;48.286;8.484;2024-01-30T00:20:23;95317.47;;;-0.72;100.00
39739;BME280;25422;48.286;8.484;2024-01-30T00:22:49;95318.59;;;-0.78;100.00
39739;BME280;25422;48.286;8.484;2024-01-30T00:25:14;95321.25;;;-0.79;100.00
39739;BME280;25422;48.286;8.484;2024-01-30T00:27:39;95324.16;;;-0.87;100.00
39739;BME280;25422;48.286;8.484;2024-01-30T00:30:05;95329.31;;;-0.87;100.00
39739;BME280;25422;48.286;8.484;2024-01-30T00:32:32;95326.97;;;-0.92;100.00
39739;BME280;25422;48.286;8.484;2024-01-30T00:34:57;95322.66;;;-0.91;100.00
39739;BME280;25422;48.286;8.484;2024-01-30T00:37:23;95326.66;;;-0.86;100.00
39739;BME280;25422;48.286;8.484;2024-01-30T00:39:48;95320.63;;;-0.85;100.00
39739;BME280;25422;48.286;8.484;2024-01-30T00:42:14;95326.47;;;-0.81;100.00
39739;BME280;25422;48.286;8.484;2024-01-30T00:44:39;95328.72;;;-0.75;100.00
39739;BME280;25422;48.286;8.484;2024-01-30T00:47:05;95327.56;;;-0.68;100.00
39739;BME280;25422;48.286;8.484;2024-01-30T00:49:31;95326.94;;;-0.73;100.00
39739;BME280;25422;48.286;8.484;2024-01-30T00:51:56;95329.84;;;-0.80;100.00
39739;BME280;25422;48.286;8.484;2024-01-30T00:54:21;95330.16;;;-0.87;100.00
39739;BME280;25422;48.286;8.484;2024-01-30T00:56:47;95322.16;;;-0.80;100.00
39739;BME280;25422;48.286;8.484;2024-01-30T00:59:12;95332.91;;;-0.72;100.00
39739;BME280;25422;48.286;8.484;2024-01-30T01:01:38;95329.59;;;-0.74;100.00
39739;BME280;25422;48.286;8.484;2024-01-30T01:04:03;95326.63;;;-0.84;100.00
39739;BME280;25422;48.286;8.484;2024-01-30T01:06:29;95326.81;;;-0.89;100.00
39739;BME280;25422;48.286;8.484;2024-01-30T01:08:54;95338.75;;;-0.88;100.00
39739;BME280;25422;48.286;8.484;2024-01-30T01:11:20;95341.41;;;-0.89;100.00
39739;BME280;25422;48.286;8.484;2024-01-30T01:13:45;95336.91;;;-0.84;100.00
39739;BME280;25422;48.286;8.484;2024-01-30T01:16:10;95332.81;;;-0.71;100.00
39739;BME280;25422;48.286;8.484;2024-01-30T01:18:36;95334.56;;;-0.71;100.00
39739;BME280;25422;48.286;8.484;2024-01-30T01:21:02;95325.72;;;-0.65;100.00
39739;BME280;25422;48.286;8.484;2024-01-30T01:23:27;95331.84;;;-0.68;100.00
39739;BME280;25422;48.286;8.484;2024-01-30T01:25:52;95335.69;;;-0.77;100.00
39739;BME280;25422;48.286;8.484;2024-01-30T01:28:18;95331.88;;;-0.87;100.00
39739;BME280;25422;48.286;8.484;2024-01-30T01:30:44;95330.44;;;-0.93;100.00
39739;BME280;25422;48.286;8.484;2024-01-30T01:33:09;95331.50;;;-1.16;100.00
39739;BME280;25422;48.286;8.484;2024-01-30T01:35:35;95332.69;;;-1.23;100.00
39739;BME280;25422;48.286;8.484;2024-01-30T01:38:01;95329.00;;;-1.37;100.00
39739;BME280;25422;48.286;8.484;2024-01-30T01:40:27;95328.84;;;-1.53;100.00
39739;BME280;25422;48.286;8.484;2024-01-30T01:42:53;95332.94;;;-1.48;100.00
39739;BME280;25422;48.286;8.484;2024-01-30T01:45:19;95323.22;;;-1.61;100.00
39739;BME280;25422;48.286;8.484;2024-01-30T01:47:47;95319.75;;;-1.60;100.00
39739;BME280;25422;48.286;8.484;2024-01-30T01:50:14;95334.19;;;-1.57;100.00
39739;BME280;25422;48.286;8.484;2024-01-30T01:52:41;95318.78;;;-1.57;100.00
39739;BME280;25422;48.286;8.484;2024-01-30T01:55:07;95324.88;;;-1.60;100.00
39739;BME280;25422;48.286;8.484;2024-01-30T01:57:37;95319.53;;;-1.55;100.00
39739;BME280;25422;48.286;8.484;2024-01-30T02:00:03;95319.84;;;-1.61;100.00
39739;BME280;25422;48.286;8.484;2024-01-30T02:02:35;95319.69;;;-1.58;100.00
39739;BME280;25422;48.286;8.484;2024-01-30T02:05:02;95316.34;;;-1.60;100.00
39739;BME280;25422;48.286;8.484;2024-01-30T02:07:30;95327.53;;;-1.61;100.00
39739;BME280;25422;48.286;8.484;2024-01-30T02:09:56;95331.06;;;-1.64;100.00
39739;BME280;25422;48.286;8.484;2024-01-30T02:12:21;95332.09;;;-1.68;100.00
39739;BME280;25422;48.286;8.484;2024-01-30T02:14:48;95327.78;;;-1.67;100.00
39739;BME280;25422;48.286;8.484;2024-01-30T02:17:15;95322.50;;;-1.64;100.00
39739;BME280;25422;48.286;8.484;2024-01-30T02:19:40;95316.56;;;-1.65;100.00
39739;BME280;25422;48.286;8.484;2024-01-30T02:22:06;95319.44;;;-1.73;100.00
39739;BME280;25422;48.286;8.484;2024-01-30T02:24:32;95321.91;;;-1.70;100.00
39739;BME280;25422;48.286;8.484;2024-01-30T02:26:57;95317.91;;;-1.77;100.00
39739;BME280;25422;48.286;8.484;2024-01-30T02:29:23;95313.28;;;-1.68;100.00
39739;BME280;25422;48.286;8.484;2024-01-30T02:31:48;95317.38;;;-1.64;100.00
39739;BME280;25422;48.286;8.484;2024-01-30T02:34:14;95312.25;;;-1.64;100.00
39739;BME280;25422;48.286;8.484;2024-01-30T02:36:43;95318.22;;;-1.64;100.00
39739;BME280;25422;48.286;8.484;2024-01-30T02:39:09;95306.16;;;-1.62;100.00
39739;BME280;25422;48.286;8.484;2024-01-30T02:41:35;95309.50;;;-1.60;100.00
39739;BME280;25422;48.286;8.484;2024-01-30T02:44:01;95319.88;;;-1.63;100.00
39739;BME280;25422;48.286;8.484;2024-01-30T02:46:27;95320.88;;;-1.65;100.00
39739;BME280;25422;48.286;8.484;2024-01-30T02:48:52;95308.78;;;-1.63;100.00
39739;BME280;25422;48.286;8.484;2024-01-30T02:51:17;95309.59;;;-1.63;100.00
39739;BME280;25422;48.286;8.484;2024-01-30T02:53:43;95311.50;;;-1.66;100.00
39739;BME280;25422;48.286;8.484;2024-01-30T02:56:08;95319.03;;;-1.82;100.00
39739;BME280;25422;48.286;8.484;2024-01-30T02:58:39;95325.47;;;-1.74;100.00
39739;BME280;25422;48.286;8.484;2024-01-30T03:01:05;95310.16;;;-1.75;100.00
39739;BME280;25422;48.286;8.484;2024-01-30T03:03:30;95304.06;;;-1.73;100.00
39739;BME280;25422;48.286;8.484;2024-01-30T03:05:56;95310.66;;;-1.67;100.00
39739;BME280;25422;48.286;8.484;2024-01-30T03:08:21;95317.25;;;-1.61;100.00
39739;BME280;25422;48.286;8.484;2024-01-30T03:10:46;95315.88;;;-1.49;100.00
39739;BME280;25422;48.286;8.484;2024-01-30T03:13:12;95313.13;;;-1.45;100.00
39739;BME280;25422;48.286;8.484;2024-01-30T03:15:37;95314.72;;;-1.42;100.00
39739;BME280;25422;48.286;8.484;2024-01-30T03:18:03;95318.25;;;-1.45;100.00
39739;BME280;25422;48.286;8.484;2024-01-30T03:20:29;95314.78;;;-1.44;100.00
39739;BME280;25422;48.286;8.484;2024-01-30T03:22:55;95321.97;;;-1.52;100.00
39739;BME280;25422;48.286;8.484;2024-01-30T03:25:21;95319.88;;;-1.63;100.00
39739;BME280;25422;48.286;8.484;2024-01-30T03:27:46;95321.69;;;-1.65;100.00
39739;BME280;25422;48.286;8.484;2024-01-30T03:30:12;95321.34;;;-1.76;100.00
39739;BME280;25422;48.286;8.484;2024-01-30T03:32:37;95315.63;;;-1.83;100.00
39739;BME280;25422;48.286;8.484;2024-01-30T03:35:03;95318.44;;;-1.89;100.00
39739;BME280;25422;48.286;8.484;2024-01-30T03:37:29;95317.81;;;-1.94;100.00
39739;BME280;25422;48.286;8.484;2024-01-30T03:39:55;95320.31;;;-1.93;100.00
39739;BME280;25422;48.286;8.484;2024-01-30T03:42:20;95317.81;;;-1.94;100.00
39739;BME280;25422;48.286;8.484;2024-01-30T03:44:46;95320.25;;;-1.91;100.00
39739;BME280;25422;48.286;8.484;2024-01-30T03:47:11;95321.97;;;-1.92;100.00
39739;BME280;25422;48.286;8.484;2024-01-30T03:49:37;95316.72;;;-1.89;100.00
39739;BME280;25422;48.286;8.484;2024-01-30T03:52:03;95313.81;;;-1.81;100.00
39739;BME280;25422;48.286;8.484;2024-01-30T03:54:28;95311.00;;;-1.75;100.00
39739;BME280;25422;48.286;8.484;2024-01-30T03:56:53;95317.09;;;-1.77;100.00
39739;BME280;25422;48.286;8.484;2024-01-30T03:59:19;95312.34;;;-1.87;100.00
39739;BME280;25422;48.286;8.484;2024-01-30T04:01:50;95308.06;;;-1.86;100.00
39739;BME280;25422;48.286;8.484;2024-01-30T04:04:17;95318.13;;;-1.81;100.00
39739;BME280;25422;48.286;8.484;2024-01-30T04:06:43;95316.25;;;-1.78;100.00
39739;BME280;25422;48.286;8.484;2024-01-30T04:09:09;95316.19;;;-1.76;100.00
39739;BME280;25422;48.286;8.484;2024-01-30T04:11:35;95314.31;;;-1.73;100.00
39739;BME280;25422;48.286;8.484;2024-01-30T04:14:00;95316.19;;;-1.76;100.00
39739;BME280;25422;48.286;8.484;2024-01-30T04:16:26;95312.31;;;-1.66;100.00
39739;BME280;25422;48.286;8.484;2024-01-30T04:18:51;95308.66;;;-1.60;100.00
39739;BME280;25422;48.286;8.484;2024-01-30T04:21:17;95310.31;;;-1.59;100.00
39739;BME280;25422;48.286;8.484;2024-01-30T04:23:43;95314.69;;;-1.61;100.00
39739;BME280;25422;48.286;8.484;2024-01-30T04:26:08;95306.00;;;-1.59;100.00
39739;BME280;25422;48.286;8.484;2024-01-30T04:28:34;95313.84;;;-1.62;100.00
39739;BME280;25422;48.286;8.484;2024-01-30T04:30:59;95312.56;;;-1.51;100.00
39739;BME280;25422;48.286;8.484;2024-01-30T04:33:24;95311.66;;;-1.31;100.00
39739;BME280;25422;48.286;8.484;2024-01-30T04:35:50;95301.38;;;-1.12;100.00
39739;BME280;25422;48.286;8.484;2024-01-30T04:38:15;95304.19;;;-0.99;100.00
39739;BME280;25422;48.286;8.484;2024-01-30T04:40:41;95308.56;;;-0.82;100.00
39739;BME280;25422;48.286;8.484;2024-01-30T04:43:06;95306.38;;;-0.73;100.00
39739;BME280;25422;48.286;8.484;2024-01-30T04:45:32;95318.31;;;-0.72;100.00
39739;BME280;25422;48.286;8.484;2024-01-30T04:47:57;95316.81;;;-0.76;100.00
39739;BME280;25422;48.286;8.484;2024-01-30T04:50:23;95320.34;;;-0.78;100.00
39739;BME280;25422;48.286;8.484;2024-01-30T04:52:49;95313.78;;;-0.84;100.00
39739;BME280;25422;48.286;8.484;2024-01-30T04:55:14;95310.50;;;-0.88;100.00
39739;BME280;25422;48.286;8.484;2024-01-30T04:57:40;95312.69;;;-0.97;100.00
39739;BME280;25422;48.286;8.484;2024-01-30T05:00:06;95321.50;;;-1.03;100.00
39739;BME280;25422;48.286;8.484;2024-01-30T05:02:32;95318.50;;;-1.13;100.00
39739;BME280;25422;48.286;8.484;2024-01-30T05:04:57;95316.09;;;-1.16;100.00
39739;BME280;25422;48.286;8.484;2024-01-30T05:07:24;95320.75;;;-1.24;100.00
39739;BME280;25422;48.286;8.484;2024-01-30T05:09:50;95318.44;;;-1.30;100.00
39739;BME280;25422;48.286;8.484;2024-01-30T05:12:15;95316.16;;;-1.17;100.00
39739;BME280;25422;48.286;8.484;2024-01-30T05:14:41;95318.81;;;-1.19;100.00
39739;BME280;25422;48.286;8.484;2024-01-30T05:17:06;95327.66;;;-1.26;100.00
39739;BME280;25422;48.286;8.484;2024-01-30T05:19:33;95321.56;;;-1.24;100.00
39739;BME280;25422;48.286;8.484;2024-01-30T05:21:58;95333.66;;;-1.26;100.00
39739;BME280;25422;48.286;8.484;2024-01-30T05:24:24;95324.28;;;-1.27;100.00
39739;BME280;25422;48.286;8.484;2024-01-30T05:26:49;95327.13;;;-1.14;100.00
39739;BME280;25422;48.286;8.484;2024-01-30T05:29:16;95316.88;;;-1.14;100.00
39739;BME280;25422;48.286;8.484;2024-01-30T05:31:41;95314.34;;;-1.15;100.00
39739;BME280;25422;48.286;8.484;2024-01-30T05:34:07;95325.09;;;-1.26;100.00
39739;BME280;25422;48.286;8.484;2024-01-30T05:36:33;95323.53;;;-1.29;100.00
39739;BME280;25422;48.286;8.484;2024-01-30T05:38:58;95327.81;;;-1.29;100.00
39739;BME280;25422;48.286;8.484;2024-01-30T05:41:24;95329.91;;;-1.38;100.00
39739;BME280;25422;48.286;8.484;2024-01-30T05:43:49;95321.84;;;-1.49;100.00
39739;BME280;25422;48.286;8.484;2024-01-30T05:46:15;95333.75;;;-1.48;100.00
39739;BME280;25422;48.286;8.484;2024-01-30T05:48:40;95326.53;;;-1.59;100.00
39739;BME280;25422;48.286;8.484;2024-01-30T05:51:07;95327.53;;;-1.61;100.00
39739;BME280;25422;48.286;8.484;2024-01-30T05:53:32;95330.59;;;-1.74;100.00
39739;BME280;25422;48.286;8.484;2024-01-30T05:55:58;95329.84;;;-1.76;100.00
39739;BME280;25422;48.286;8.484;2024-01-30T05:58:24;95336.66;;;-1.75;100.00
39739;BME280;25422;48.286;8.484;2024-01-30T06:00:49;95333.25;;;-1.75;100.00
39739;BME280;25422;48.286;8.484;2024-01-30T06:03:15;95337.06;;;-1.84;100.00
39739;BME280;25422;48.286;8.484;2024-01-30T06:05:40;95340.56;;;-1.87;100.00
39739;BME280;25422;48.286;8.484;2024-01-30T06:08:06;95339.34;;;-1.98;100.00
39739;BME280;25422;48.286;8.484;2024-01-30T06:10:31;95342.13;;;-2.03;100.00
39739;BME280;25422;48.286;8.484;2024-01-30T06:12:56;95339.69;;;-2.06;100.00
39739;BME280;25422;48.286;8.484;2024-01-30T06:15:22;95338.91;;;-2.08;100.00
39739;BME280;25422;48.286;8.484;2024-01-30T06:17:47;95337.53;;;-2.15;100.00
39739;BME280;25422;48.286;8.484;2024-01-30T06:20:13;95340.84;;;-2.13;100.00
39739;BME280;25422;48.286;8.484;2024-01-30T06:22:39;95352.41;;;-2.25;100.00
39739;BME280;25422;48.286;8.484;2024-01-30T06:25:04;95348.44;;;-2.32;100.00
39739;BME280;25422;48.286;8.484;2024-01-30T06:27:30;95344.94;;;-2.30;100.00
39739;BME280;25422;48.286;8.484;2024-01-30T06:29:55;95349.09;;;-2.27;100.00
39739;BME280;25422;48.286;8.484;2024-01-30T06:32:21;95346.84;;;-2.35;100.00
39739;BME280;25422;48.286;8.484;2024-01-30T06:34:46;95352.09;;;-2.38;100.00
39739;BME280;25422;48.286;8.484;2024-01-30T06:37:11;95348.75;;;-2.40;100.00
39739;BME280;25422;48.286;8.484;2024-01-30T06:39:37;95344.41;;;-2.38;100.00
39739;BME280;25422;48.286;8.484;2024-01-30T06:42:03;95345.19;;;-2.36;100.00
39739;BME280;25422;48.286;8.484;2024-01-30T06:44:28;95353.88;;;-2.40;100.00
39739;BME280;25422;48.286;8.484;2024-01-30T06:46:54;95356.13;;;-2.32;100.00
39739;BME280;25422;48.286;8.484;2024-01-30T06:49:19;95346.69;;;-2.30;100.00
39739;BME280;25422;48.286;8.484;2024-01-30T06:51:47;95351.59;;;-2.26;100.00
39739;BME280;25422;48.286;8.484;2024-01-30T06:54:12;95355.78;;;-2.23;100.00
39739;BME280;25422;48.286;8.484;2024-01-30T06:56:38;95351.22;;;-2.16;100.00
39739;BME280;25422;48.286;8.484;2024-01-30T06:59:03;95355.25;;;-2.11;100.00
39739;BME280;25422;48.286;8.484;2024-01-30T07:01:29;95362.06;;;-2.10;100.00
39739;BME280;25422;48.286;8.484;2024-01-30T07:03:55;95353.34;;;-2.06;100.00
39739;BME280;25422;48.286;8.484;2024-01-30T07:06:20;95353.84;;;-1.97;100.00
39739;BME280;25422;48.286;8.484;2024-01-30T07:08:46;95360.59;;;-1.95;100.00
39739;BME280;25422;48.286;8.484;2024-01-30T07:11:20;95361.34;;;-1.93;100.00
39739;BME280;25422;48.286;8.484;2024-01-30T07:13:47;95363.09;;;-1.93;100.00
39739;BME280;25422;48.286;8.484;2024-01-30T07:16:14;95357.06;;;-1.92;100.00
39739;BME280;25422;48.286;8.484;2024-01-30T07:18:40;95366.44;;;-1.91;100.00
39739;BME280;25422;48.286;8.484;2024-01-30T07:21:05;95358.28;;;-1.80;100.00
39739;BME280;25422;48.286;8.484;2024-01-30T07:23:31;95359.75;;;-1.75;100.00
39739;BME280;25422;48.286;8.484;2024-01-30T07:25:56;95355.19;;;-1.68;100.00
39739;BME280;25422;48.286;8.484;2024-01-30T07:28:22;95352.84;;;-1.54;100.00
39739;BME280;25422;48.286;8.484;2024-01-30T07:30:47;95343.13;;;-1.47;100.00
39739;BME280;25422;48.286;8.484;2024-01-30T07:33:13;95358.28;;;-1.41;100.00
39739;BME280;25422;48.286;8.484;2024-01-30T07:35:39;95355.31;;;-1.31;100.00
39739;BME280;25422;48.286;8.484;2024-01-30T07:38:04;95355.97;;;-1.28;100.00
39739;BME280;25422;48.286;8.484;2024-01-30T07:40:30;95350.38;;;-1.17;100.00
39739;BME280;25422;48.286;8.484;2024-01-30T07:42:55;95355.56;;;-0.99;100.00
39739;BME280;25422;48.286;8.484;2024-01-30T07:45:21;95356.91;;;-0.91;100.00
39739;BME280;25422;48.286;8.484;2024-01-30T07:47:51;95361.59;;;-0.81;100.00
39739;BME280;25422;48.286;8.484;2024-01-30T07:50:17;95362.56;;;-0.65;100.00
39739;BME280;25422;48.286;8.484;2024-01-30T07:52:43;95364.28;;;-0.65;100.00
39739;BME280;25422;48.286;8.484;2024-01-30T07:55:09;95366.28;;;-0.53;100.00
39739;BME280;25422;48.286;8.484;2024-01-30T07:57:34;95370.91;;;-0.42;100.00
39739;BME280;25422;48.286;8.484;2024-01-30T08:00:01;95375.06;;;-0.40;100.00
39739;BME280;25422;48.286;8.484;2024-01-30T08:02:32;95366.59;;;-0.42;100.00
39739;BME280;25422;48.286;8.484;2024-01-30T08:04:58;95369.81;;;-0.37;100.00
39739;BME280;25422;48.286;8.484;2024-01-30T08:07:23;95366.75;;;-0.27;100.00
39739;BME280;25422;48.286;8.484;2024-01-30T08:09:50;95365.13;;;-0.11;100.00
39739;BME280;25422;48.286;8.484;2024-01-30T08:12:15;95364.13;;;0.09;100.00
39739;BME280;25422;48.286;8.484;2024-01-30T08:14:41;95369.56;;;0.54;100.00
39739;BME280;25422;48.286;8.484;2024-01-30T08:17:07;95374.97;;;0.83;100.00
39739;BME280;25422;48.286;8.484;2024-01-30T08:19:33;95379.41;;;1.29;100.00
39739;BME280;25422;48.286;8.484;2024-01-30T08:21:58;95375.94;;;1.76;100.00
39739;BME280;25422;48.286;8.484;2024-01-30T08:24:24;95372.22;;;2.27;100.00
39739;BME280;25422;48.286;8.484;2024-01-30T08:26:49;95370.22;;;3.04;100.00
39739;BME280;25422;48.286;8.484;2024-01-30T08:29:15;95367.47;;;3.49;100.00
39739;BME280;25422;48.286;8.484;2024-01-30T08:31:40;95362.88;;;4.07;100.00
39739;BME280;25422;48.286;8.484;2024-01-30T08:34:06;95362.78;;;5.12;100.00
39739;BME280;25422;48.286;8.484;2024-01-30T08:36:32;95364.16;;;5.90;100.00
39739;BME280;25422;48.286;8.484;2024-01-30T08:38:57;95354.25;;;7.12;100.00
39739;BME280;25422;48.286;8.484;2024-01-30T08:41:23;95365.94;;;7.95;85.67
39739;BME280;25422;48.286;8.484;2024-01-30T08:43:49;95364.34;;;8.78;81.38
39739;BME280;25422;48.286;8.484;2024-01-30T08:46:17;95365.81;;;8.71;74.32
39739;BME280;25422;48.286;8.484;2024-01-30T08:48:43;95356.47;;;8.15;76.30
39739;BME280;25422;48.286;8.484;2024-01-30T08:51:09;95360.25;;;7.90;75.44
39739;BME280;25422;48.286;8.484;2024-01-30T08:53:35;95359.72;;;8.28;75.35
39739;BME280;25422;48.286;8.484;2024-01-30T08:56:02;95365.16;;;9.10;73.95
39739;BME280;25422;48.286;8.484;2024-01-30T08:58:27;95366.31;;;9.17;68.69
39739;BME280;25422;48.286;8.484;2024-01-30T09:00:53;95363.78;;;8.75;69.70
39739;BME280;25422;48.286;8.484;2024-01-30T09:03:18;95366.31;;;8.65;71.85
39739;BME280;25422;48.286;8.484;2024-01-30T09:05:44;95365.81;;;7.97;75.81
39739;BME280;25422;48.286;8.484;2024-01-30T09:08:10;95361.28;;;7.99;84.66
39739;BME280;25422;48.286;8.484;2024-01-30T09:10:35;95367.53;;;7.75;88.50
39739;BME280;25422;48.286;8.484;2024-01-30T09:13:01;95369.88;;;7.34;92.78
39739;BME280;25422;48.286;8.484;2024-01-30T09:15:26;95373.66;;;7.30;96.16
39739;BME280;25422;48.286;8.484;2024-01-30T09:17:52;95369.06;;;7.78;92.06
39739;BME280;25422;48.286;8.484;2024-01-30T09:20:17;95366.16;;;7.48;90.68
39739;BME280;25422;48.286;8.484;2024-01-30T09:22:42;95381.94;;;6.90;100.00
39739;BME280;25422;48.286;8.484;2024-01-30T09:25:08;95375.44;;;6.26;100.00
39739;BME280;25422;48.286;8.484;2024-01-30T09:27:34;95384.81;;;6.04;100.00
39739;BME280;25422;48.286;8.484;2024-01-30T09:29:59;95383.25;;;6.02;100.00
39739;BME280;25422;48.286;8.484;2024-01-30T09:32:25;95384.78;;;6.29;100.00
39739;BME280;25422;48.286;8.484;2024-01-30T09:34:50;95375.69;;;6.34;100.00
39739;BME280;25422;48.286;8.484;2024-01-30T09:37:15;95393.78;;;6.12;100.00
39739;BME280;25422;48.286;8.484;2024-01-30T09:39:43;95377.66;;;6.89;100.00
39739;BME280;25422;48.286;8.484;2024-01-30T09:44:47;95382.09;;;8.42;97.68
39739;BME280;25422;48.286;8.484;2024-01-30T09:47:16;95392.53;;;8.85;90.14
39739;BME280;25422;48.286;8.484;2024-01-30T09:49:43;95386.78;;;8.91;86.62
39739;BME280;25422;48.286;8.484;2024-01-30T09:52:09;95392.72;;;8.93;81.86
39739;BME280;25422;48.286;8.484;2024-01-30T09:54:35;95400.41;;;8.73;81.57
39739;BME280;25422;48.286;8.484;2024-01-30T09:57:01;95397.53;;;9.28;76.25
39739;BME280;25422;48.286;8.484;2024-01-30T09:59:26;95402.03;;;8.65;76.17
39739;BME280;25422;48.286;8.484;2024-01-30T10:01:52;95405.38;;;8.23;78.76
39739;BME280;25422;48.286;8.484;2024-01-30T10:04:18;95399.09;;;8.79;76.95
39739;BME280;25422;48.286;8.484;2024-01-30T10:06:43;95396.91;;;8.84;68.77
39739;BME280;25422;48.286;8.484;2024-01-30T10:09:09;95400.63;;;8.60;74.45
39739;BME280;25422;48.286;8.484;2024-01-30T10:11:36;95397.97;;;8.51;77.51
39739;BME280;25422;48.286;8.484;2024-01-30T10:14:01;95395.47;;;8.38;76.60
39739;BME280;25422;48.286;8.484;2024-01-30T10:16:27;95388.94;;;8.43;77.24
39739;BME280;25422;48.286;8.484;2024-01-30T10:18:53;95388.56;;;8.90;78.97
39739;BME280;25422;48.286;8.484;2024-01-30T10:21:18;95396.88;;;9.26;84.92
39739;BME280;25422;48.286;8.484;2024-01-30T10:23:44;95391.50;;;9.69;83.17
39739;BME280;25422;48.286;8.484;2024-01-30T10:26:12;95398.09;;;9.73;84.23
39739;BME280;25422;48.286;8.484;2024-01-30T10:28:38;95395.00;;;10.08;84.40
39739;BME280;25422;48.286;8.484;2024-01-30T10:31:03;95389.59;;;9.90;89.42
39739;BME280;25422;48.286;8.484;2024-01-30T10:33:30;95390.91;;;9.55;80.31
39739;BME280;25422;48.286;8.484;2024-01-30T10:36:03;95387.06;;;9.59;87.53
39739;BME280;25422;48.286;8.484;2024-01-30T10:38:30;95391.50;;;9.78;81.99
39739;BME280;25422;48.286;8.484;2024-01-30T10:41:00;95391.56;;;10.08;79.86
39739;BME280;25422;48.286;8.484;2024-01-30T10:43:33;95396.78;;;10.18;77.27
39739;BME280;25422;48.286;8.484;2024-01-30T10:46:18;95396.28;;;9.64;73.55
39739;BME280;25422;48.286;8.484;2024-01-30T10:48:50;95396.72;;;9.69;74.27
39739;BME280;25422;48.286;8.484;2024-01-30T10:51:16;95386.56;;;9.85;72.73
39739;BME280;25422;48.286;8.484;2024-01-30T10:53:46;95384.81;;;9.45;69.53
39739;BME280;25422;48.286;8.484;2024-01-30T10:56:11;95389.06;;;9.36;71.49
39739;BME280;25422;48.286;8.484;2024-01-30T10:58:38;95384.28;;;9.10;71.59
39739;BME280;25422;48.286;8.484;2024-01-30T11:01:04;95391.66;;;9.05;71.40
39739;BME280;25422;48.286;8.484;2024-01-30T11:03:31;95383.22;;;8.92;72.39
39739;BME280;25422;48.286;8.484;2024-01-30T11:06:00;95385.56;;;8.95;70.33
39739;BME280;25422;48.286;8.484;2024-01-30T11:08:25;95383.44;;;8.79;71.32
39739;BME280;25422;48.286;8.484;2024-01-30T11:10:57;95386.16;;;8.77;73.31
39739;BME280;25422;48.286;8.484;2024-01-30T11:13:26;95375.97;;;8.74;72.21
39739;BME280;25422;48.286;8.484;2024-01-30T11:15:51;95376.94;;;8.73;72.48
39739;BME280;25422;48.286;8.484;2024-01-30T11:18:24;95362.78;;;8.97;71.93
39739;BME280;25422;48.286;8.484;2024-01-30T11:20:51;95371.84;;;9.24;70.95
39739;BME280;25422;48.286;8.484;2024-01-30T11:23:16;95376.44;;;9.10;69.30
39739;BME280;25422;48.286;8.484;2024-01-30T11:25:43;95379.41;;;8.96;70.26
39739;BME280;25422;48.286;8.484;2024-01-30T11:28:14;95372.75;;;9.54;67.19
39739;BME280;25422;48.286;8.484;2024-01-30T11:30:44;95380.44;;;9.55;68.48
39739;BME280;25422;48.286;8.484;2024-01-30T11:33:14;95373.38;;;9.96;67.20
39739;BME280;25422;48.286;8.484;2024-01-30T11:35:44;95370.53;;;9.59;66.59
39739;BME280;25422;48.286;8.484;2024-01-30T11:38:14;95377.66;;;9.37;68.06
39739;BME280;25422;48.286;8.484;2024-01-30T11:40:40;95362.81;;;9.07;69.90
39739;BME280;25422;48.286;8.484;2024-01-30T11:43:07;95366.81;;;9.11;71.16
39739;BME280;25422;48.286;8.484;2024-01-30T11:45:34;95355.75;;;9.28;70.05
39739;BME280;25422;48.286;8.484;2024-01-30T11:48:00;95360.38;;;9.56;71.01
39739;BME280;25422;48.286;8.484;2024-01-30T11:50:27;95357.38;;;9.70;67.77
39739;BME280;25422;48.286;8.484;2024-01-30T11:52:54;95363.28;;;9.22;67.60
39739;BME280;25422;48.286;8.484;2024-01-30T11:55:21;95354.81;;;8.99;67.40
39739;BME280;25422;48.286;8.484;2024-01-30T11:57:46;95357.22;;;9.11;71.07
39739;BME280;25422;48.286;8.484;2024-01-30T12:00:18;95349.63;;;9.59;67.38
39739;BME280;25422;48.286;8.484;2024-01-30T12:02:49;95348.44;;;9.63;65.24
39739;BME280;25422;48.286;8.484;2024-01-30T12:05:14;95345.84;;;9.92;66.86
39739;BME280;25422;48.286;8.484;2024-01-30T12:07:40;95351.22;;;9.81;65.87
39739;BME280;25422;48.286;8.484;2024-01-30T12:10:06;95351.22;;;9.81;64.97
39739;BME280;25422;48.286;8.484;2024-01-30T12:12:35;95348.03;;;10.26;64.94
39739;BME280;25422;48.286;8.484;2024-01-30T12:15:01;95346.28;;;10.27;64.30
39739;BME280;25422;48.286;8.484;2024-01-30T12:17:31;95354.66;;;10.21;64.92
39739;BME280;25422;48.286;8.484;2024-01-30T12:20:14;95341.91;;;10.85;65.77
39739;BME280;25422;48.286;8.484;2024-01-30T12:22:43;95352.94;;;11.54;62.94
39739;BME280;25422;48.286;8.484;2024-01-30T12:25:11;95343.28;;;12.00;61.48
39739;BME280;25422;48.286;8.484;2024-01-30T12:27:37;95345.38;;;12.14;56.67
39739;BME280;25422;48.286;8.484;2024-01-30T12:30:07;95335.56;;;12.17;58.52
39739;BME280;25422;48.286;8.484;2024-01-30T12:32:43;95342.16;;;12.03;58.69
39739;BME280;25422;48.286;8.484;2024-01-30T12:35:18;95339.84;;;11.72;58.77
39739;BME280;25422;48.286;8.484;2024-01-30T12:37:45;95338.06;;;11.44;58.16
39739;BME280;25422;48.286;8.484;2024-01-30T12:40:12;95347.09;;;10.57;61.20
39739;BME280;25422;48.286;8.484;2024-01-30T12:42:42;95343.66;;;10.07;61.58
39739;BME280;25422;48.286;8.484;2024-01-30T12:45:08;95341.72;;;10.29;63.21
39739;BME280;25422;48.286;8.484;2024-01-30T12:47:34;95338.94;;;10.60;61.29
39739;BME280;25422;48.286;8.484;2024-01-30T12:49:59;95334.41;;;11.00;61.13
39739;BME280;25422;48.286;8.484;2024-01-30T12:52:25;95335.75;;;11.13;60.91